sensor_id;sensor_type;location;lat;lon;timestamp;P1;durP1;ratioP1;P2;durP2;ratioP2
26920;SDS011;14483;47.844;9.660;2023-04-24T00:02:04;1.25;;;0.82;;
26920;SDS011;14483;47.844;9.660;2023-04-24T00:04:31;0.32;;;0.20;;
26920;SDS011;14483;47.844;9.660;2023-04-24T00:06:58;1.50;;;0.40;;
26920;SDS011;14483;47.844;9.660;2023-04-24T00:09:26;0.75;;;0.20;;
26920;SDS011;14483;47.844;9.660;2023-04-24T00:11:52;0.38;;;0.20;;
26920;SDS011;14483;47.844;9.660;2023-04-24T00:14:19;0.52;;;0.30;;
26920;SDS011;14483;47.844;9.660;2023-04-24T00:16:46;0.43;;;0.22;;
26920;SDS011;14483;47.844;9.660;2023-04-24T00:19:12;1.00;;;0.30;;
26920;SDS011;14483;47.844;9.660;2023-04-24T00:21:38;0.55;;;0.20;;
26920;SDS011;14483;47.844;9.660;2023-04-24T00:24:06;0.35;;;0.20;;
26920;SDS011;14483;47.844;9.660;2023-04-24T00:26:35;1.73;;;0.45;;
26920;SDS011;14483;47.844;9.660;2023-04-24T00:29:01;2.80;;;0.40;;
26920;SDS011;14483;47.844;9.660;2023-04-24T00:31:28;0.98;;;0.30;;
26920;SDS011;14483;47.844;9.660;2023-04-24T00:33:54;0.38;;;0.20;;
26920;SDS011;14483;47.844;9.660;2023-04-24T00:36:21;2.47;;;0.25;;
26920;SDS011;14483;47.844;9.660;2023-04-24T00:38:47;1.52;;;0.30;;
26920;SDS011;14483;47.844;9.660;2023-04-24T00:41:13;1.50;;;0.50;;
26920;SDS011;14483;47.844;9.660;2023-04-24T00:43:41;2.60;;;0.30;;
26920;SDS011;14483;47.844;9.660;2023-04-24T00:46:08;0.55;;;0.20;;
26920;SDS011;14483;47.844;9.660;2023-04-24T00:48:34;0.88;;;0.40;;
26920;SDS011;14483;47.844;9.660;2023-04-24T00:51:01;0.50;;;0.28;;
26920;SDS011;14483;47.844;9.660;2023-04-24T00:53:27;0.38;;;0.20;;
26920;SDS011;14483;47.844;9.660;2023-04-24T00:55:54;2.08;;;0.30;;
26920;SDS011;14483;47.844;9.660;2023-04-24T00:58:21;0.85;;;0.20;;
26920;SDS011;14483;47.844;9.660;2023-04-24T01:00:49;2.35;;;0.40;;
26920;SDS011;14483;47.844;9.660;2023-04-24T01:03:18;0.88;;;0.20;;
26920;SDS011;14483;47.844;9.660;2023-04-24T01:05:44;1.50;;;0.30;;
26920;SDS011;14483;47.844;9.660;2023-04-24T01:08:11;1.38;;;0.40;;
26920;SDS011;14483;47.844;9.660;2023-04-24T01:10:37;1.95;;;0.57;;
26920;SDS011;14483;47.844;9.660;2023-04-24T01:13:04;2.22;;;0.85;;
26920;SDS011;14483;47.844;9.660;2023-04-24T01:15:31;1.27;;;0.40;;
26920;SDS011;14483;47.844;9.660;2023-04-24T01:17:58;2.05;;;0.40;;
26920;SDS011;14483;47.844;9.660;2023-04-24T01:20:25;1.30;;;0.50;;
26920;SDS011;14483;47.844;9.660;2023-04-24T01:22:53;1.98;;;0.65;;
26920;SDS011;14483;47.844;9.660;2023-04-24T01:25:21;1.88;;;0.57;;
26920;SDS011;14483;47.844;9.660;2023-04-24T01:27:48;3.33;;;0.70;;
26920;SDS011;14483;47.844;9.660;2023-04-24T01:30:15;1.25;;;0.50;;
26920;SDS011;14483;47.844;9.660;2023-04-24T01:32:41;1.13;;;0.63;;
26920;SDS011;14483;47.844;9.660;2023-04-24T01:35:09;1.27;;;0.70;;
26920;SDS011;14483;47.844;9.660;2023-04-24T01:37:36;1.40;;;0.50;;
26920;SDS011;14483;47.844;9.660;2023-04-24T01:40:05;1.55;;;0.30;;
26920;SDS011;14483;47.844;9.660;2023-04-24T01:42:31;0.50;;;0.32;;
26920;SDS011;14483;47.844;9.660;2023-04-24T01:44:58;0.60;;;0.40;;
26920;SDS011;14483;47.844;9.660;2023-04-24T01:47:25;0.40;;;0.20;;
26920;SDS011;14483;47.844;9.660;2023-04-24T01:49:51;2.38;;;0.40;;
26920;SDS011;14483;47.844;9.660;2023-04-24T01:52:17;1.00;;;0.20;;
26920;SDS011;14483;47.844;9.660;2023-04-24T01:54:44;0.88;;;0.38;;
26920;SDS011;14483;47.844;9.660;2023-04-24T01:57:12;1.90;;;0.60;;
26920;SDS011;14483;47.844;9.660;2023-04-24T01:59:39;1.75;;;0.20;;
26920;SDS011;14483;47.844;9.660;2023-04-24T02:02:05;1.13;;;0.30;;
26920;SDS011;14483;47.844;9.660;2023-04-24T02:04:32;0.50;;;0.20;;
26920;SDS011;14483;47.844;9.660;2023-04-24T02:07:02;1.15;;;0.30;;
26920;SDS011;14483;47.844;9.660;2023-04-24T02:09:28;0.30;;;0.10;;
26920;SDS011;14483;47.844;9.660;2023-04-24T02:11:54;0.40;;;0.20;;
26920;SDS011;14483;47.844;9.660;2023-04-24T02:14:22;1.65;;;0.25;;
26920;SDS011;14483;47.844;9.660;2023-04-24T02:16:49;1.85;;;0.40;;
26920;SDS011;14483;47.844;9.660;2023-04-24T02:19:15;1.98;;;0.17;;
26920;SDS011;14483;47.844;9.660;2023-04-24T02:21:41;1.05;;;0.30;;
26920;SDS011;14483;47.844;9.660;2023-04-24T02:24:08;0.28;;;0.13;;
26920;SDS011;14483;47.844;9.660;2023-04-24T02:26:34;3.60;;;0.50;;
26920;SDS011;14483;47.844;9.660;2023-04-24T02:29:01;2.15;;;0.40;;
26920;SDS011;14483;47.844;9.660;2023-04-24T02:31:28;0.28;;;0.15;;
26920;SDS011;14483;47.844;9.660;2023-04-24T02:33:55;0.30;;;0.20;;
26920;SDS011;14483;47.844;9.660;2023-04-24T02:36:21;0.75;;;0.30;;
26920;SDS011;14483;47.844;9.660;2023-04-24T02:38:47;0.63;;;0.20;;
26920;SDS011;14483;47.844;9.660;2023-04-24T02:41:14;0.40;;;0.20;;
26920;SDS011;14483;47.844;9.660;2023-04-24T02:43:40;0.55;;;0.25;;
26920;SDS011;14483;47.844;9.660;2023-04-24T02:46:08;0.30;;;0.20;;
26920;SDS011;14483;47.844;9.660;2023-04-24T02:48:35;1.88;;;0.47;;
26920;SDS011;14483;47.844;9.660;2023-04-24T02:51:02;0.55;;;0.20;;
26920;SDS011;14483;47.844;9.660;2023-04-24T02:53:28;0.10;;;0.10;;
26920;SDS011;14483;47.844;9.660;2023-04-24T02:55:55;0.40;;;0.20;;
26920;SDS011;14483;47.844;9.660;2023-04-24T02:58:22;0.50;;;0.20;;
26920;SDS011;14483;47.844;9.660;2023-04-24T03:00:48;3.30;;;0.30;;
26920;SDS011;14483;47.844;9.660;2023-04-24T03:03:15;1.00;;;0.40;;
26920;SDS011;14483;47.844;9.660;2023-04-24T03:05:42;0.20;;;0.10;;
26920;SDS011;14483;47.844;9.660;2023-04-24T03:08:09;2.63;;;0.28;;
26920;SDS011;14483;47.844;9.660;2023-04-24T03:10:36;0.40;;;0.20;;
26920;SDS011;14483;47.844;9.660;2023-04-24T03:13:02;0.50;;;0.30;;
26920;SDS011;14483;47.844;9.660;2023-04-24T03:15:28;0.68;;;0.30;;
26920;SDS011;14483;47.844;9.660;2023-04-24T03:17:55;0.93;;;0.40;;
26920;SDS011;14483;47.844;9.660;2023-04-24T03:20:21;4.38;;;0.40;;
26920;SDS011;14483;47.844;9.660;2023-04-24T03:22:49;1.15;;;0.40;;
26920;SDS011;14483;47.844;9.660;2023-04-24T03:25:15;3.38;;;0.30;;
26920;SDS011;14483;47.844;9.660;2023-04-24T03:27:42;0.43;;;0.20;;
26920;SDS011;14483;47.844;9.660;2023-04-24T03:30:08;0.30;;;0.20;;
26920;SDS011;14483;47.844;9.660;2023-04-24T03:32:35;0.90;;;0.22;;
26920;SDS011;14483;47.844;9.660;2023-04-24T03:35:01;0.45;;;0.20;;
26920;SDS011;14483;47.844;9.660;2023-04-24T03:37:28;0.63;;;0.20;;
26920;SDS011;14483;47.844;9.660;2023-04-24T03:39:56;1.13;;;0.40;;
26920;SDS011;14483;47.844;9.660;2023-04-24T03:42:22;1.77;;;0.43;;
26920;SDS011;14483;47.844;9.660;2023-04-24T03:44:48;0.17;;;0.17;;
26920;SDS011;14483;47.844;9.660;2023-04-24T03:47:15;0.60;;;0.20;;
26920;SDS011;14483;47.844;9.660;2023-04-24T03:49:41;0.30;;;0.10;;
26920;SDS011;14483;47.844;9.660;2023-04-24T03:52:07;0.50;;;0.10;;
26920;SDS011;14483;47.844;9.660;2023-04-24T03:54:34;0.25;;;0.10;;
26920;SDS011;14483;47.844;9.660;2023-04-24T03:57:01;1.00;;;0.20;;
26920;SDS011;14483;47.844;9.660;2023-04-24T03:59:29;0.35;;;0.10;;
26920;SDS011;14483;47.844;9.660;2023-04-24T04:01:56;0.60;;;0.20;;
26920;SDS011;14483;47.844;9.660;2023-04-24T04:04:22;0.17;;;0.10;;
26920;SDS011;14483;47.844;9.660;2023-04-24T04:06:48;0.43;;;0.10;;
26920;SDS011;14483;47.844;9.660;2023-04-24T04:09:15;0.28;;;0.20;;
26920;SDS011;14483;47.844;9.660;2023-04-24T04:11:41;1.05;;;0.10;;
26920;SDS011;14483;47.844;9.660;2023-04-24T04:14:09;1.65;;;0.17;;
26920;SDS011;14483;47.844;9.660;2023-04-24T04:16:35;0.20;;;0.15;;
26920;SDS011;14483;47.844;9.660;2023-04-24T04:19:02;0.63;;;0.10;;
26920;SDS011;14483;47.844;9.660;2023-04-24T04:21:29;0.28;;;0.00;;
26920;SDS011;14483;47.844;9.660;2023-04-24T04:23:55;0.22;;;0.10;;
26920;SDS011;14483;47.844;9.660;2023-04-24T04:26:22;1.17;;;0.30;;
26920;SDS011;14483;47.844;9.660;2023-04-24T04:28:50;0.88;;;0.13;;
26920;SDS011;14483;47.844;9.660;2023-04-24T04:31:18;0.68;;;0.20;;
26920;SDS011;14483;47.844;9.660;2023-04-24T04:33:44;0.40;;;0.10;;
26920;SDS011;14483;47.844;9.660;2023-04-24T04:36:11;0.40;;;0.20;;
26920;SDS011;14483;47.844;9.660;2023-04-24T04:38:37;0.50;;;0.10;;
26920;SDS011;14483;47.844;9.660;2023-04-24T04:41:05;0.80;;;0.25;;
26920;SDS011;14483;47.844;9.660;2023-04-24T04:43:32;1.00;;;0.20;;
26920;SDS011;14483;47.844;9.660;2023-04-24T04:45:59;2.53;;;0.20;;
26920;SDS011;14483;47.844;9.660;2023-04-24T04:48:29;0.25;;;0.10;;
26920;SDS011;14483;47.844;9.660;2023-04-24T04:50:56;0.93;;;0.17;;
26920;SDS011;14483;47.844;9.660;2023-04-24T04:53:23;0.20;;;0.10;;
26920;SDS011;14483;47.844;9.660;2023-04-24T04:55:49;0.50;;;0.17;;
26920;SDS011;14483;47.844;9.660;2023-04-24T04:58:15;0.17;;;0.10;;
26920;SDS011;14483;47.844;9.660;2023-04-24T05:00:42;0.60;;;0.30;;
26920;SDS011;14483;47.844;9.660;2023-04-24T05:03:09;0.43;;;0.20;;
26920;SDS011;14483;47.844;9.660;2023-04-24T05:05:36;0.43;;;0.20;;
26920;SDS011;14483;47.844;9.660;2023-04-24T05:08:05;0.30;;;0.10;;
26920;SDS011;14483;47.844;9.660;2023-04-24T05:10:32;0.38;;;0.17;;
26920;SDS011;14483;47.844;9.660;2023-04-24T05:12:58;0.20;;;0.10;;
26920;SDS011;14483;47.844;9.660;2023-04-24T05:15:24;0.85;;;0.20;;
26920;SDS011;14483;47.844;9.660;2023-04-24T05:17:51;1.05;;;0.30;;
26920;SDS011;14483;47.844;9.660;2023-04-24T05:20:17;0.30;;;0.10;;
26920;SDS011;14483;47.844;9.660;2023-04-24T05:22:45;0.52;;;0.15;;
26920;SDS011;14483;47.844;9.660;2023-04-24T05:25:11;0.30;;;0.10;;
26920;SDS011;14483;47.844;9.660;2023-04-24T05:27:38;0.10;;;0.10;;
26920;SDS011;14483;47.844;9.660;2023-04-24T05:30:05;0.22;;;0.10;;
26920;SDS011;14483;47.844;9.660;2023-04-24T05:32:32;2.65;;;0.17;;
26920;SDS011;14483;47.844;9.660;2023-04-24T05:34:59;0.70;;;0.20;;
26920;SDS011;14483;47.844;9.660;2023-04-24T05:37:25;0.98;;;0.13;;
26920;SDS011;14483;47.844;9.660;2023-04-24T05:39:53;0.40;;;0.10;;
26920;SDS011;14483;47.844;9.660;2023-04-24T05:42:19;0.57;;;0.25;;
26920;SDS011;14483;47.844;9.660;2023-04-24T05:44:45;2.53;;;0.22;;
26920;SDS011;14483;47.844;9.660;2023-04-24T05:47:12;0.70;;;0.20;;
26920;SDS011;14483;47.844;9.660;2023-04-24T05:49:38;1.45;;;0.30;;
26920;SDS011;14483;47.844;9.660;2023-04-24T05:52:04;1.17;;;0.20;;
26920;SDS011;14483;47.844;9.660;2023-04-24T05:54:33;0.05;;;0.00;;
26920;SDS011;14483;47.844;9.660;2023-04-24T05:57:01;1.60;;;0.20;;
26920;SDS011;14483;47.844;9.660;2023-04-24T05:59:32;0.57;;;0.10;;
26920;SDS011;14483;47.844;9.660;2023-04-24T06:01:58;0.10;;;0.10;;
26920;SDS011;14483;47.844;9.660;2023-04-24T06:04:25;0.25;;;0.10;;
26920;SDS011;14483;47.844;9.660;2023-04-24T06:06:51;0.32;;;0.20;;
26920;SDS011;14483;47.844;9.660;2023-04-24T06:09:20;0.10;;;0.10;;
26920;SDS011;14483;47.844;9.660;2023-04-24T06:11:47;2.58;;;0.28;;
26920;SDS011;14483;47.844;9.660;2023-04-24T06:14:14;0.22;;;0.10;;
26920;SDS011;14483;47.844;9.660;2023-04-24T06:16:41;0.25;;;0.13;;
26920;SDS011;14483;47.844;9.660;2023-04-24T06:19:08;0.47;;;0.10;;
26920;SDS011;14483;47.844;9.660;2023-04-24T06:21:34;0.40;;;0.10;;
26920;SDS011;14483;47.844;9.660;2023-04-24T06:24:00;0.98;;;0.25;;
26920;SDS011;14483;47.844;9.660;2023-04-24T06:26:27;5.10;;;0.28;;
26920;SDS011;14483;47.844;9.660;2023-04-24T06:28:53;1.02;;;0.35;;
26920;SDS011;14483;47.844;9.660;2023-04-24T06:31:21;0.70;;;0.30;;
26920;SDS011;14483;47.844;9.660;2023-04-24T06:33:47;0.93;;;0.30;;
26920;SDS011;14483;47.844;9.660;2023-04-24T06:36:14;3.15;;;0.40;;
26920;SDS011;14483;47.844;9.660;2023-04-24T06:38:40;0.82;;;0.20;;
26920;SDS011;14483;47.844;9.660;2023-04-24T06:41:07;0.80;;;0.20;;
26920;SDS011;14483;47.844;9.660;2023-04-24T06:43:33;0.52;;;0.03;;
26920;SDS011;14483;47.844;9.660;2023-04-24T06:46:00;0.40;;;0.20;;
26920;SDS011;14483;47.844;9.660;2023-04-24T06:48:29;0.65;;;0.25;;
26920;SDS011;14483;47.844;9.660;2023-04-24T06:50:56;1.30;;;0.30;;
26920;SDS011;14483;47.844;9.660;2023-04-24T06:53:22;1.05;;;0.30;;
26920;SDS011;14483;47.844;9.660;2023-04-24T06:55:49;0.95;;;0.00;;
26920;SDS011;14483;47.844;9.660;2023-04-24T06:58:15;1.75;;;0.10;;
26920;SDS011;14483;47.844;9.660;2023-04-24T07:00:41;1.05;;;0.20;;
26920;SDS011;14483;47.844;9.660;2023-04-24T07:03:08;3.10;;;0.35;;
26920;SDS011;14483;47.844;9.660;2023-04-24T07:05:36;0.20;;;0.10;;
26920;SDS011;14483;47.844;9.660;2023-04-24T07:08:03;0.10;;;0.10;;
26920;SDS011;14483;47.844;9.660;2023-04-24T07:10:29;1.00;;;0.20;;
26920;SDS011;14483;47.844;9.660;2023-04-24T07:12:56;0.65;;;0.20;;
26920;SDS011;14483;47.844;9.660;2023-04-24T07:15:22;0.28;;;0.20;;
26920;SDS011;14483;47.844;9.660;2023-04-24T07:17:49;0.45;;;0.28;;
26920;SDS011;14483;47.844;9.660;2023-04-24T07:20:15;0.80;;;0.22;;
26920;SDS011;14483;47.844;9.660;2023-04-24T07:22:43;2.30;;;0.30;;
26920;SDS011;14483;47.844;9.660;2023-04-24T07:25:10;0.60;;;0.30;;
26920;SDS011;14483;47.844;9.660;2023-04-24T07:27:36;0.25;;;0.25;;
26920;SDS011;14483;47.844;9.660;2023-04-24T07:30:03;1.10;;;0.20;;
26920;SDS011;14483;47.844;9.660;2023-04-24T07:32:29;2.13;;;0.30;;
26920;SDS011;14483;47.844;9.660;2023-04-24T07:34:56;0.75;;;0.30;;
26920;SDS011;14483;47.844;9.660;2023-04-24T07:37:22;2.45;;;0.40;;
26920;SDS011;14483;47.844;9.660;2023-04-24T07:39:50;0.63;;;0.40;;
26920;SDS011;14483;47.844;9.660;2023-04-24T07:42:16;0.82;;;0.40;;
26920;SDS011;14483;47.844;9.660;2023-04-24T07:44:42;1.10;;;0.52;;
26920;SDS011;14483;47.844;9.660;2023-04-24T07:47:09;1.80;;;0.50;;
26920;SDS011;14483;47.844;9.660;2023-04-24T07:49:35;2.63;;;0.77;;
26920;SDS011;14483;47.844;9.660;2023-04-24T07:52:02;1.00;;;0.50;;
26920;SDS011;14483;47.844;9.660;2023-04-24T07:54:28;1.17;;;0.40;;
26920;SDS011;14483;47.844;9.660;2023-04-24T07:56:56;1.10;;;0.60;;
26920;SDS011;14483;47.844;9.660;2023-04-24T07:59:22;1.58;;;0.70;;
26920;SDS011;14483;47.844;9.660;2023-04-24T08:01:49;2.53;;;0.50;;
26920;SDS011;14483;47.844;9.660;2023-04-24T08:04:15;3.35;;;0.70;;
26920;SDS011;14483;47.844;9.660;2023-04-24T08:06:42;2.92;;;0.70;;
26920;SDS011;14483;47.844;9.660;2023-04-24T08:09:09;1.23;;;0.45;;
26920;SDS011;14483;47.844;9.660;2023-04-24T08:11:35;4.57;;;0.65;;
26920;SDS011;14483;47.844;9.660;2023-04-24T08:14:03;2.10;;;0.90;;
26920;SDS011;14483;47.844;9.660;2023-04-24T08:16:29;1.30;;;0.52;;
26920;SDS011;14483;47.844;9.660;2023-04-24T08:18:56;1.35;;;0.50;;
26920;SDS011;14483;47.844;9.660;2023-04-24T08:21:22;2.83;;;0.70;;
26920;SDS011;14483;47.844;9.660;2023-04-24T08:23:49;2.55;;;0.65;;
26920;SDS011;14483;47.844;9.660;2023-04-24T08:26:15;2.08;;;0.50;;
26920;SDS011;14483;47.844;9.660;2023-04-24T08:28:42;1.58;;;0.60;;
26920;SDS011;14483;47.844;9.660;2023-04-24T08:31:10;3.47;;;0.82;;
26920;SDS011;14483;47.844;9.660;2023-04-24T08:33:36;2.28;;;0.80;;
26920;SDS011;14483;47.844;9.660;2023-04-24T08:36:03;1.85;;;0.85;;
26920;SDS011;14483;47.844;9.660;2023-04-24T08:38:30;2.58;;;0.80;;
26920;SDS011;14483;47.844;9.660;2023-04-24T08:40:57;1.48;;;0.73;;
26920;SDS011;14483;47.844;9.660;2023-04-24T08:43:24;1.20;;;0.70;;
26920;SDS011;14483;47.844;9.660;2023-04-24T08:45:51;3.40;;;1.08;;
26920;SDS011;14483;47.844;9.660;2023-04-24T08:48:19;1.23;;;0.68;;
26920;SDS011;14483;47.844;9.660;2023-04-24T08:50:46;1.02;;;0.47;;
26920;SDS011;14483;47.844;9.660;2023-04-24T08:53:14;2.67;;;0.68;;
26920;SDS011;14483;47.844;9.660;2023-04-24T08:55:40;1.50;;;0.60;;
26920;SDS011;14483;47.844;9.660;2023-04-24T08:58:07;1.65;;;0.70;;
26920;SDS011;14483;47.844;9.660;2023-04-24T09:00:34;1.08;;;0.80;;
26920;SDS011;14483;47.844;9.660;2023-04-24T09:03:00;3.97;;;0.60;;
26920;SDS011;14483;47.844;9.660;2023-04-24T09:05:29;1.90;;;0.60;;
26920;SDS011;14483;47.844;9.660;2023-04-24T09:07:56;4.22;;;0.63;;
26920;SDS011;14483;47.844;9.660;2023-04-24T09:10:23;0.95;;;0.68;;
26920;SDS011;14483;47.844;9.660;2023-04-24T09:12:50;2.47;;;0.43;;
26920;SDS011;14483;47.844;9.660;2023-04-24T09:15:16;0.95;;;0.70;;
26920;SDS011;14483;47.844;9.660;2023-04-24T09:17:43;0.98;;;0.50;;
26920;SDS011;14483;47.844;9.660;2023-04-24T09:20:09;1.88;;;0.50;;
26920;SDS011;14483;47.844;9.660;2023-04-24T09:22:37;2.58;;;0.50;;
26920;SDS011;14483;47.844;9.660;2023-04-24T09:25:05;1.70;;;0.60;;
26920;SDS011;14483;47.844;9.660;2023-04-24T09:27:32;0.95;;;0.40;;
26920;SDS011;14483;47.844;9.660;2023-04-24T09:29:59;3.72;;;0.85;;
26920;SDS011;14483;47.844;9.660;2023-04-24T09:32:25;2.42;;;0.60;;
26920;SDS011;14483;47.844;9.660;2023-04-24T09:35:07;2.17;;;0.90;;
26920;SDS011;14483;47.844;9.660;2023-04-24T09:37:38;1.02;;;0.45;;
26920;SDS011;14483;47.844;9.660;2023-04-24T09:40:14;1.08;;;0.50;;
26920;SDS011;14483;47.844;9.660;2023-04-24T09:42:43;1.95;;;0.43;;
26920;SDS011;14483;47.844;9.660;2023-04-24T09:45:10;1.10;;;0.40;;
26920;SDS011;14483;47.844;9.660;2023-04-24T09:47:37;1.17;;;0.40;;
26920;SDS011;14483;47.844;9.660;2023-04-24T09:50:10;1.35;;;0.40;;
26920;SDS011;14483;47.844;9.660;2023-04-24T09:52:40;1.50;;;0.50;;
26920;SDS011;14483;47.844;9.660;2023-04-24T09:55:10;0.75;;;0.45;;
26920;SDS011;14483;47.844;9.660;2023-04-24T09:57:40;2.15;;;0.68;;
26920;SDS011;14483;47.844;9.660;2023-04-24T10:00:13;1.08;;;0.50;;
26920;SDS011;14483;47.844;9.660;2023-04-24T10:02:39;2.70;;;0.60;;
26920;SDS011;14483;47.844;9.660;2023-04-24T10:05:06;1.02;;;0.50;;
26920;SDS011;14483;47.844;9.660;2023-04-24T10:07:32;0.75;;;0.40;;
26920;SDS011;14483;47.844;9.660;2023-04-24T10:10:00;1.85;;;0.38;;
26920;SDS011;14483;47.844;9.660;2023-04-24T10:12:27;1.45;;;0.40;;
26920;SDS011;14483;47.844;9.660;2023-04-24T10:14:54;1.33;;;0.43;;
26920;SDS011;14483;47.844;9.660;2023-04-24T10:17:20;0.82;;;0.47;;
26920;SDS011;14483;47.844;9.660;2023-04-24T10:19:47;1.60;;;0.40;;
26920;SDS011;14483;47.844;9.660;2023-04-24T10:22:14;1.10;;;0.50;;
26920;SDS011;14483;47.844;9.660;2023-04-24T10:24:40;2.25;;;0.50;;
26920;SDS011;14483;47.844;9.660;2023-04-24T10:27:08;1.95;;;0.43;;
26920;SDS011;14483;47.844;9.660;2023-04-24T10:29:35;2.03;;;0.70;;
26920;SDS011;14483;47.844;9.660;2023-04-24T10:32:01;1.00;;;0.50;;
26920;SDS011;14483;47.844;9.660;2023-04-24T10:34:28;1.02;;;0.40;;
26920;SDS011;14483;47.844;9.660;2023-04-24T10:36:55;2.15;;;0.30;;
26920;SDS011;14483;47.844;9.660;2023-04-24T10:39:22;1.83;;;0.60;;
26920;SDS011;14483;47.844;9.660;2023-04-24T10:41:49;1.55;;;0.77;;
26920;SDS011;14483;47.844;9.660;2023-04-24T10:44:17;3.33;;;0.57;;
26920;SDS011;14483;47.844;9.660;2023-04-24T10:46:44;0.73;;;0.30;;
26920;SDS011;14483;47.844;9.660;2023-04-24T10:49:10;0.43;;;0.30;;
26920;SDS011;14483;47.844;9.660;2023-04-24T10:51:44;4.78;;;0.47;;
26920;SDS011;14483;47.844;9.660;2023-04-24T10:54:21;1.60;;;0.50;;
26920;SDS011;14483;47.844;9.660;2023-04-24T10:56:47;1.00;;;0.40;;
26920;SDS011;14483;47.844;9.660;2023-04-24T10:59:20;1.25;;;0.50;;
26920;SDS011;14483;47.844;9.660;2023-04-24T11:01:52;1.33;;;0.70;;
26920;SDS011;14483;47.844;9.660;2023-04-24T11:04:28;2.60;;;0.60;;
26920;SDS011;14483;47.844;9.660;2023-04-24T11:06:54;0.80;;;0.50;;
26920;SDS011;14483;47.844;9.660;2023-04-24T11:09:21;0.50;;;0.30;;
26920;SDS011;14483;47.844;9.660;2023-04-24T11:11:47;0.50;;;0.35;;
26920;SDS011;14483;47.844;9.660;2023-04-24T11:14:14;1.85;;;0.50;;
26920;SDS011;14483;47.844;9.660;2023-04-24T11:16:45;1.15;;;0.55;;
26920;SDS011;14483;47.844;9.660;2023-04-24T11:19:18;0.95;;;0.50;;
26920;SDS011;14483;47.844;9.660;2023-04-24T11:21:46;3.20;;;0.45;;
26920;SDS011;14483;47.844;9.660;2023-04-24T11:26:54;2.75;;;0.75;;
26920;SDS011;14483;47.844;9.660;2023-04-24T11:29:21;2.38;;;0.63;;
26920;SDS011;14483;47.844;9.660;2023-04-24T11:31:49;2.70;;;0.50;;
26920;SDS011;14483;47.844;9.660;2023-04-24T11:34:17;1.77;;;0.40;;
26920;SDS011;14483;47.844;9.660;2023-04-24T11:36:43;1.02;;;0.38;;
26920;SDS011;14483;47.844;9.660;2023-04-24T11:39:10;5.35;;;0.60;;
26920;SDS011;14483;47.844;9.660;2023-04-24T11:41:36;1.83;;;0.55;;
26920;SDS011;14483;47.844;9.660;2023-04-24T11:44:03;3.88;;;0.60;;
26920;SDS011;14483;47.844;9.660;2023-04-24T11:46:31;0.70;;;0.40;;
26920;SDS011;14483;47.844;9.660;2023-04-24T11:48:59;2.33;;;0.60;;
26920;SDS011;14483;47.844;9.660;2023-04-24T11:51:26;1.60;;;0.70;;
26920;SDS011;14483;47.844;9.660;2023-04-24T11:53:53;2.75;;;0.85;;
26920;SDS011;14483;47.844;9.660;2023-04-24T11:56:20;2.03;;;0.90;;
26920;SDS011;14483;47.844;9.660;2023-04-24T11:58:47;1.63;;;0.50;;
26920;SDS011;14483;47.844;9.660;2023-04-24T12:01:13;1.30;;;0.47;;
26920;SDS011;14483;47.844;9.660;2023-04-24T12:03:40;2.35;;;0.50;;
26920;SDS011;14483;47.844;9.660;2023-04-24T12:06:10;2.38;;;0.55;;
26920;SDS011;14483;47.844;9.660;2023-04-24T12:08:37;1.98;;;0.50;;
26920;SDS011;14483;47.844;9.660;2023-04-24T12:11:04;1.80;;;0.50;;
26920;SDS011;14483;47.844;9.660;2023-04-24T12:13:32;2.08;;;0.60;;
26920;SDS011;14483;47.844;9.660;2023-04-24T12:15:58;1.52;;;0.55;;
26920;SDS011;14483;47.844;9.660;2023-04-24T12:18:25;3.90;;;0.73;;
26920;SDS011;14483;47.844;9.660;2023-04-24T12:20:51;1.05;;;0.50;;
26920;SDS011;14483;47.844;9.660;2023-04-24T12:26:11;4.65;;;0.43;;
26920;SDS011;14483;47.844;9.660;2023-04-24T12:28:38;1.63;;;0.47;;
26920;SDS011;14483;47.844;9.660;2023-04-24T12:31:05;2.40;;;0.43;;
26920;SDS011;14483;47.844;9.660;2023-04-24T12:33:32;1.02;;;0.50;;
26920;SDS011;14483;47.844;9.660;2023-04-24T12:35:58;1.08;;;0.40;;
26920;SDS011;14483;47.844;9.660;2023-04-24T12:38:26;0.70;;;0.28;;
26920;SDS011;14483;47.844;9.660;2023-04-24T12:41:01;0.60;;;0.43;;
26920;SDS011;14483;47.844;9.660;2023-04-24T12:43:29;2.05;;;0.40;;
26920;SDS011;14483;47.844;9.660;2023-04-24T12:45:55;2.15;;;0.63;;
26920;SDS011;14483;47.844;9.660;2023-04-24T12:48:22;1.30;;;0.50;;
26920;SDS011;14483;47.844;9.660;2023-04-24T12:50:48;0.93;;;0.38;;
26920;SDS011;14483;47.844;9.660;2023-04-24T12:53:14;1.85;;;0.50;;
26920;SDS011;14483;47.844;9.660;2023-04-24T12:55:41;3.63;;;0.52;;
26920;SDS011;14483;47.844;9.660;2023-04-24T12:58:07;1.50;;;0.60;;
26920;SDS011;14483;47.844;9.660;2023-04-24T13:00:35;0.85;;;0.30;;
26920;SDS011;14483;47.844;9.660;2023-04-24T13:03:02;0.73;;;0.32;;
26920;SDS011;14483;47.844;9.660;2023-04-24T13:05:28;0.93;;;0.40;;
26920;SDS011;14483;47.844;9.660;2023-04-24T13:07:55;2.88;;;0.50;;
26920;SDS011;14483;47.844;9.660;2023-04-24T13:10:21;2.10;;;0.50;;
26920;SDS011;14483;47.844;9.660;2023-04-24T13:12:47;1.45;;;0.50;;
26920;SDS011;14483;47.844;9.660;2023-04-24T13:15:14;2.42;;;0.70;;
26920;SDS011;14483;47.844;9.660;2023-04-24T13:17:41;9.60;;;1.25;;
26920;SDS011;14483;47.844;9.660;2023-04-24T13:20:08;8.20;;;1.63;;
26920;SDS011;14483;47.844;9.660;2023-04-24T13:22:35;5.68;;;1.40;;
26920;SDS011;14483;47.844;9.660;2023-04-24T13:25:01;8.27;;;1.63;;
26920;SDS011;14483;47.844;9.660;2023-04-24T13:27:28;10.93;;;1.92;;
26920;SDS011;14483;47.844;9.660;2023-04-24T13:29:54;1.95;;;0.63;;
26920;SDS011;14483;47.844;9.660;2023-04-24T13:32:21;2.65;;;0.88;;
26920;SDS011;14483;47.844;9.660;2023-04-24T13:34:49;2.03;;;0.70;;
26920;SDS011;14483;47.844;9.660;2023-04-24T13:37:15;1.48;;;0.60;;
26920;SDS011;14483;47.844;9.660;2023-04-24T13:39:41;1.73;;;0.57;;
26920;SDS011;14483;47.844;9.660;2023-04-24T13:42:08;3.72;;;0.80;;
26920;SDS011;14483;47.844;9.660;2023-04-24T13:44:34;2.38;;;0.55;;
26920;SDS011;14483;47.844;9.660;2023-04-24T13:47:01;1.70;;;0.60;;
26920;SDS011;14483;47.844;9.660;2023-04-24T13:49:27;1.73;;;0.60;;
26920;SDS011;14483;47.844;9.660;2023-04-24T13:51:55;1.63;;;0.50;;
26920;SDS011;14483;47.844;9.660;2023-04-24T13:54:22;1.08;;;0.50;;
26920;SDS011;14483;47.844;9.660;2023-04-24T13:56:50;2.53;;;0.55;;
26920;SDS011;14483;47.844;9.660;2023-04-24T13:59:17;3.83;;;0.60;;
26920;SDS011;14483;47.844;9.660;2023-04-24T14:01:43;1.52;;;0.57;;
26920;SDS011;14483;47.844;9.660;2023-04-24T14:04:10;2.10;;;0.50;;
26920;SDS011;14483;47.844;9.660;2023-04-24T14:06:37;1.27;;;0.77;;
26920;SDS011;14483;47.844;9.660;2023-04-24T14:09:05;2.80;;;0.50;;
26920;SDS011;14483;47.844;9.660;2023-04-24T14:11:31;1.88;;;0.50;;
26920;SDS011;14483;47.844;9.660;2023-04-24T14:13:58;1.60;;;0.50;;
26920;SDS011;14483;47.844;9.660;2023-04-24T14:16:24;2.08;;;0.60;;
26920;SDS011;14483;47.844;9.660;2023-04-24T14:18:51;3.03;;;1.02;;
26920;SDS011;14483;47.844;9.660;2023-04-24T14:21:17;1.10;;;0.60;;
26920;SDS011;14483;47.844;9.660;2023-04-24T14:23:43;0.82;;;0.55;;
26920;SDS011;14483;47.844;9.660;2023-04-24T14:26:11;3.00;;;0.50;;
26920;SDS011;14483;47.844;9.660;2023-04-24T14:28:38;2.22;;;0.50;;
26920;SDS011;14483;47.844;9.660;2023-04-24T14:31:04;1.52;;;0.57;;
26920;SDS011;14483;47.844;9.660;2023-04-24T14:33:31;2.58;;;0.50;;
26920;SDS011;14483;47.844;9.660;2023-04-24T14:35:57;1.10;;;0.40;;
26920;SDS011;14483;47.844;9.660;2023-04-24T14:38:23;1.27;;;0.52;;
26920;SDS011;14483;47.844;9.660;2023-04-24T14:40:50;0.93;;;0.30;;
26920;SDS011;14483;47.844;9.660;2023-04-24T14:43:17;1.10;;;0.60;;
26920;SDS011;14483;47.844;9.660;2023-04-24T14:45:44;1.13;;;0.52;;
26920;SDS011;14483;47.844;9.660;2023-04-24T14:48:10;1.38;;;0.50;;
26920;SDS011;14483;47.844;9.660;2023-04-24T14:50:37;2.50;;;0.60;;
26920;SDS011;14483;47.844;9.660;2023-04-24T14:53:03;1.13;;;0.55;;